Terminal Aerodrome Forecast
Issued by NWS

Home | Current Version | Previous Version | Text Only | Print | Product List | Glossary Off
Versions: 1 2 3 4 5 6 7 8 9 10 11 12 13 14 15 16

000
FTUS45 KGGW 261730
TAFGDV
TAF
KGDV 261730Z 2618/2718 28008KT P6SM VCSH BKN040
     FM270100 32007KT P6SM VCSH BKN050
     FM270300 33005KT P6SM BKN070
     FM271200 34004KT P6SM BKN030
      AMD LTD TO CLD VIS AND WIND=

USA.gov is the U.S. government's official web portal to all federal, state and local government web resources and services.